sensor_id;sensor_type;location;lat;lon;timestamp;pressure;altitude;pressure_sealevel;temperature;humidity
4598;BME280;62772;48.646;8.906;2023-07-13T00:02:46;96293.88;;;18.17;100.00
4598;BME280;62772;48.646;8.906;2023-07-13T00:07:47;96295.31;;;18.10;100.00
4598;BME280;62772;48.646;8.906;2023-07-13T00:12:48;96286.97;;;18.19;96.73
4598;BME280;62772;48.646;8.906;2023-07-13T00:17:50;96288.38;;;18.13;96.84
4598;BME280;62772;48.646;8.906;2023-07-13T00:22:54;96281.97;;;17.79;96.17
4598;BME280;62772;48.646;8.906;2023-07-13T00:27:54;96276.88;;;18.16;97.68
4598;BME280;62772;48.646;8.906;2023-07-13T00:32:55;96277.81;;;18.51;94.59
4598;BME280;62772;48.646;8.906;2023-07-13T00:37:56;96281.59;;;18.00;95.13
4598;BME280;62772;48.646;8.906;2023-07-13T00:42:59;96291.25;;;18.01;100.00
4598;BME280;62772;48.646;8.906;2023-07-13T00:47:59;96296.69;;;18.24;100.00
4598;BME280;62772;48.646;8.906;2023-07-13T00:53:00;96296.16;;;18.38;99.63
4598;BME280;62772;48.646;8.906;2023-07-13T00:58:01;96302.94;;;18.28;100.00
4598;BME280;62772;48.646;8.906;2023-07-13T01:03:03;96300.97;;;18.25;100.00
4598;BME280;62772;48.646;8.906;2023-07-13T01:08:04;96308.78;;;18.30;99.59
4598;BME280;62772;48.646;8.906;2023-07-13T01:13:08;96299.66;;;18.15;100.00
4598;BME280;62772;48.646;8.906;2023-07-13T01:18:12;96305.06;;;17.95;100.00
4598;BME280;62772;48.646;8.906;2023-07-13T01:23:13;96292.06;;;18.24;100.00
4598;BME280;62772;48.646;8.906;2023-07-13T01:28:13;96289.59;;;18.16;100.00
4598;BME280;62772;48.646;8.906;2023-07-13T01:33:16;96290.72;;;17.52;100.00
4598;BME280;62772;48.646;8.906;2023-07-13T01:38:21;96291.66;;;17.40;100.00
4598;BME280;62772;48.646;8.906;2023-07-13T01:43:22;96295.69;;;17.70;100.00
4598;BME280;62772;48.646;8.906;2023-07-13T01:48:23;96294.56;;;17.90;100.00
4598;BME280;62772;48.646;8.906;2023-07-13T01:53:23;96291.44;;;18.11;100.00
4598;BME280;62772;48.646;8.906;2023-07-13T01:58:24;96301.22;;;17.18;100.00
4598;BME280;62772;48.646;8.906;2023-07-13T02:03:24;96302.59;;;16.93;100.00
4598;BME280;62772;48.646;8.906;2023-07-13T02:08:25;96299.59;;;16.82;100.00
4598;BME280;62772;48.646;8.906;2023-07-13T02:13:29;96305.66;;;15.83;100.00
4598;BME280;62772;48.646;8.906;2023-07-13T02:18:29;96301.69;;;16.09;100.00
4598;BME280;62772;48.646;8.906;2023-07-13T02:23:30;96301.41;;;15.98;100.00
4598;BME280;62772;48.646;8.906;2023-07-13T02:28:31;96307.53;;;16.27;100.00
4598;BME280;62772;48.646;8.906;2023-07-13T02:33:31;96304.81;;;16.11;100.00
4598;BME280;62772;48.646;8.906;2023-07-13T02:38:32;96318.66;;;15.81;100.00
4598;BME280;62772;48.646;8.906;2023-07-13T02:43:37;96322.75;;;15.63;100.00
4598;BME280;62772;48.646;8.906;2023-07-13T02:48:38;96322.44;;;15.52;100.00
4598;BME280;62772;48.646;8.906;2023-07-13T02:53:39;96326.75;;;15.28;100.00
4598;BME280;62772;48.646;8.906;2023-07-13T02:58:39;96321.09;;;14.80;100.00
4598;BME280;62772;48.646;8.906;2023-07-13T03:03:41;96319.84;;;15.02;100.00
4598;BME280;62772;48.646;8.906;2023-07-13T03:08:43;96315.25;;;15.56;100.00
4598;BME280;62772;48.646;8.906;2023-07-13T03:13:44;96320.66;;;15.84;100.00
4598;BME280;62772;48.646;8.906;2023-07-13T03:18:46;96325.69;;;15.86;100.00
4598;BME280;62772;48.646;8.906;2023-07-13T03:23:47;96333.38;;;16.00;100.00
4598;BME280;62772;48.646;8.906;2023-07-13T03:28:48;96331.00;;;15.41;100.00
4598;BME280;62772;48.646;8.906;2023-07-13T03:33:53;96337.22;;;14.56;100.00
4598;BME280;62772;48.646;8.906;2023-07-13T03:38:56;96340.25;;;14.91;100.00
4598;BME280;62772;48.646;8.906;2023-07-13T03:44:00;96340.25;;;14.91;100.00
4598;BME280;62772;48.646;8.906;2023-07-13T03:49:03;96348.50;;;14.49;100.00
4598;BME280;62772;48.646;8.906;2023-07-13T03:54:04;96352.47;;;14.18;100.00
4598;BME280;62772;48.646;8.906;2023-07-13T03:59:05;96364.25;;;14.26;100.00
4598;BME280;62772;48.646;8.906;2023-07-13T04:04:06;96360.25;;;14.57;100.00
4598;BME280;62772;48.646;8.906;2023-07-13T04:09:06;96362.06;;;14.52;100.00
4598;BME280;62772;48.646;8.906;2023-07-13T04:14:06;96373.75;;;14.69;100.00
4598;BME280;62772;48.646;8.906;2023-07-13T04:19:08;96373.16;;;15.37;100.00
4598;BME280;62772;48.646;8.906;2023-07-13T04:24:10;96377.97;;;15.44;100.00
4598;BME280;62772;48.646;8.906;2023-07-13T04:29:10;96376.91;;;15.08;100.00
4598;BME280;62772;48.646;8.906;2023-07-13T04:34:11;96375.44;;;14.86;100.00
4598;BME280;62772;48.646;8.906;2023-07-13T04:39:11;96379.47;;;14.67;100.00
4598;BME280;62772;48.646;8.906;2023-07-13T04:44:12;96374.78;;;14.77;100.00
4598;BME280;62772;48.646;8.906;2023-07-13T04:49:12;96383.16;;;15.12;100.00
4598;BME280;62772;48.646;8.906;2023-07-13T04:54:13;96390.13;;;15.13;100.00
4598;BME280;62772;48.646;8.906;2023-07-13T04:59:13;96395.97;;;14.91;100.00
4598;BME280;62772;48.646;8.906;2023-07-13T05:04:14;96385.06;;;14.62;100.00
4598;BME280;62772;48.646;8.906;2023-07-13T05:09:14;96394.72;;;14.42;100.00
4598;BME280;62772;48.646;8.906;2023-07-13T05:14:14;96405.47;;;15.25;100.00
4598;BME280;62772;48.646;8.906;2023-07-13T05:19:16;96401.94;;;15.49;100.00
4598;BME280;62772;48.646;8.906;2023-07-13T05:24:17;96399.81;;;15.55;100.00
4598;BME280;62772;48.646;8.906;2023-07-13T05:29:17;96390.78;;;15.75;100.00
4598;BME280;62772;48.646;8.906;2023-07-13T05:34:17;96399.88;;;15.95;100.00
4598;BME280;62772;48.646;8.906;2023-07-13T05:39:18;96406.19;;;16.31;100.00
4598;BME280;62772;48.646;8.906;2023-07-13T05:44:19;96414.88;;;16.25;100.00
4598;BME280;62772;48.646;8.906;2023-07-13T05:49:19;96420.69;;;16.55;100.00
4598;BME280;62772;48.646;8.906;2023-07-13T05:54:20;96435.41;;;16.58;100.00
4598;BME280;62772;48.646;8.906;2023-07-13T05:59:20;96428.75;;;16.39;100.00
4598;BME280;62772;48.646;8.906;2023-07-13T06:04:20;96434.72;;;16.77;100.00
4598;BME280;62772;48.646;8.906;2023-07-13T06:09:21;96449.31;;;16.60;100.00
4598;BME280;62772;48.646;8.906;2023-07-13T06:14:21;96450.41;;;17.03;100.00
4598;BME280;62772;48.646;8.906;2023-07-13T06:19:22;96453.72;;;16.96;100.00
4598;BME280;62772;48.646;8.906;2023-07-13T06:24:22;96458.38;;;16.83;100.00
4598;BME280;62772;48.646;8.906;2023-07-13T06:29:23;96461.81;;;17.12;100.00
4598;BME280;62772;48.646;8.906;2023-07-13T06:34:23;96464.13;;;17.46;94.48
4598;BME280;62772;48.646;8.906;2023-07-13T06:39:24;96466.47;;;17.63;97.39
4598;BME280;62772;48.646;8.906;2023-07-13T06:44:25;96465.38;;;17.48;96.07
4598;BME280;62772;48.646;8.906;2023-07-13T06:49:25;96458.72;;;17.62;90.32
4598;BME280;62772;48.646;8.906;2023-07-13T06:54:26;96464.19;;;18.01;87.01
4598;BME280;62772;48.646;8.906;2023-07-13T06:59:27;96473.06;;;17.82;86.93
4598;BME280;62772;48.646;8.906;2023-07-13T07:04:27;96472.69;;;17.83;85.18
4598;BME280;62772;48.646;8.906;2023-07-13T07:09:28;96480.34;;;17.97;84.51
4598;BME280;62772;48.646;8.906;2023-07-13T07:14:31;96472.47;;;18.27;80.76
4598;BME280;62772;48.646;8.906;2023-07-13T07:19:32;96477.88;;;18.08;82.79
4598;BME280;62772;48.646;8.906;2023-07-13T07:24:32;96472.97;;;18.33;79.25
4598;BME280;62772;48.646;8.906;2023-07-13T07:29:32;96467.81;;;18.08;79.26
4598;BME280;62772;48.646;8.906;2023-07-13T07:34:33;96464.97;;;18.40;78.76
4598;BME280;62772;48.646;8.906;2023-07-13T07:39:33;96466.06;;;18.55;76.37
4598;BME280;62772;48.646;8.906;2023-07-13T07:44:34;96468.66;;;18.52;72.22
4598;BME280;62772;48.646;8.906;2023-07-13T07:49:36;96474.81;;;18.91;73.05
4598;BME280;62772;48.646;8.906;2023-07-13T07:54:37;96479.69;;;18.82;75.15
4598;BME280;62772;48.646;8.906;2023-07-13T07:59:37;96475.31;;;18.97;75.73
4598;BME280;62772;48.646;8.906;2023-07-13T08:04:38;96485.25;;;19.12;68.78
4598;BME280;62772;48.646;8.906;2023-07-13T08:09:39;96483.06;;;19.21;68.96
4598;BME280;62772;48.646;8.906;2023-07-13T08:14:39;96488.34;;;19.37;64.26
4598;BME280;62772;48.646;8.906;2023-07-13T08:19:39;96485.44;;;19.50;61.11
4598;BME280;62772;48.646;8.906;2023-07-13T08:24:40;96483.81;;;19.45;62.90
4598;BME280;62772;48.646;8.906;2023-07-13T08:29:42;96478.97;;;19.58;61.35
4598;BME280;62772;48.646;8.906;2023-07-13T08:34:43;96483.63;;;19.57;59.61
4598;BME280;62772;48.646;8.906;2023-07-13T08:39:44;96478.78;;;19.97;58.14
4598;BME280;62772;48.646;8.906;2023-07-13T08:45:08;96483.44;;;19.97;56.93
4598;BME280;62772;48.646;8.906;2023-07-13T08:50:17;96488.53;;;20.02;58.18
4598;BME280;62772;48.646;8.906;2023-07-13T08:55:27;96475.47;;;20.41;58.86
4598;BME280;62772;48.646;8.906;2023-07-13T09:00:37;96474.44;;;20.53;55.73
4598;BME280;62772;48.646;8.906;2023-07-13T09:05:41;96489.03;;;20.75;59.96
4598;BME280;62772;48.646;8.906;2023-07-13T09:10:49;96491.75;;;20.75;57.58
4598;BME280;62772;48.646;8.906;2023-07-13T09:15:52;96485.78;;;20.62;56.76
4598;BME280;62772;48.646;8.906;2023-07-13T09:20:59;96483.63;;;20.79;61.21
4598;BME280;62772;48.646;8.906;2023-07-13T09:31:30;96484.81;;;20.78;56.09
4598;BME280;62772;48.646;8.906;2023-07-13T09:36:34;96487.94;;;20.83;55.89
4598;BME280;62772;48.646;8.906;2023-07-13T09:46:54;96486.28;;;20.72;57.54
4598;BME280;62772;48.646;8.906;2023-07-13T09:52:01;96485.97;;;20.80;56.64
4598;BME280;62772;48.646;8.906;2023-07-13T09:57:09;96484.63;;;20.63;57.36
4598;BME280;62772;48.646;8.906;2023-07-13T10:02:32;96485.84;;;20.66;55.79
4598;BME280;62772;48.646;8.906;2023-07-13T10:07:40;96487.22;;;20.87;54.71
4598;BME280;62772;48.646;8.906;2023-07-13T10:12:41;96468.81;;;21.10;54.69
4598;BME280;62772;48.646;8.906;2023-07-13T10:17:41;96470.81;;;21.17;54.07
4598;BME280;62772;48.646;8.906;2023-07-13T10:22:51;96468.44;;;21.12;54.38
4598;BME280;62772;48.646;8.906;2023-07-13T10:27:55;96476.41;;;21.35;54.18
4598;BME280;62772;48.646;8.906;2023-07-13T10:33:02;96474.50;;;21.43;51.97
4598;BME280;62772;48.646;8.906;2023-07-13T10:38:06;96473.91;;;21.64;51.68
4598;BME280;62772;48.646;8.906;2023-07-13T10:43:20;96473.31;;;21.40;50.28
4598;BME280;62772;48.646;8.906;2023-07-13T10:48:24;96481.34;;;21.70;48.04
4598;BME280;62772;48.646;8.906;2023-07-13T10:53:30;96482.66;;;21.98;47.83
4598;BME280;62772;48.646;8.906;2023-07-13T10:58:38;96459.38;;;22.01;48.37
4598;BME280;62772;48.646;8.906;2023-07-13T11:03:59;96459.94;;;22.39;47.09
4598;BME280;62772;48.646;8.906;2023-07-13T11:09:34;96458.66;;;22.22;47.51
4598;BME280;62772;48.646;8.906;2023-07-13T11:14:42;96469.25;;;22.31;48.82
4598;BME280;62772;48.646;8.906;2023-07-13T11:19:43;96450.63;;;22.47;45.91
4598;BME280;62772;48.646;8.906;2023-07-13T11:29:49;96453.88;;;23.10;44.85
4598;BME280;62772;48.646;8.906;2023-07-13T11:34:50;96442.97;;;23.25;40.64
4598;BME280;62772;48.646;8.906;2023-07-13T11:39:51;96446.47;;;23.36;46.22
4598;BME280;62772;48.646;8.906;2023-07-13T11:44:52;96451.09;;;23.03;42.80
4598;BME280;62772;48.646;8.906;2023-07-13T11:49:55;96433.25;;;23.20;43.44
4598;BME280;62772;48.646;8.906;2023-07-13T11:55:01;96448.03;;;23.55;41.15
4598;BME280;62772;48.646;8.906;2023-07-13T12:00:13;96455.44;;;23.26;42.38
4598;BME280;62772;48.646;8.906;2023-07-13T12:05:16;96451.91;;;23.14;42.72
4598;BME280;62772;48.646;8.906;2023-07-13T12:10:29;96453.84;;;23.07;41.61
4598;BME280;62772;48.646;8.906;2023-07-13T12:15:38;96449.59;;;23.27;40.27
4598;BME280;62772;48.646;8.906;2023-07-13T12:20:39;96441.41;;;23.34;40.13
4598;BME280;62772;48.646;8.906;2023-07-13T12:25:39;96453.06;;;23.67;39.05
4598;BME280;62772;48.646;8.906;2023-07-13T12:30:40;96449.19;;;23.47;38.80
4598;BME280;62772;48.646;8.906;2023-07-13T12:35:46;96453.44;;;23.62;38.67
4598;BME280;62772;48.646;8.906;2023-07-13T12:40:49;96441.75;;;23.87;38.70
4598;BME280;62772;48.646;8.906;2023-07-13T12:46:04;96448.41;;;23.64;40.14
4598;BME280;62772;48.646;8.906;2023-07-13T12:51:10;96447.19;;;23.76;41.11
4598;BME280;62772;48.646;8.906;2023-07-13T12:56:27;96445.94;;;24.09;40.23
4598;BME280;62772;48.646;8.906;2023-07-13T13:01:29;96441.31;;;24.03;38.62
4598;BME280;62772;48.646;8.906;2023-07-13T13:06:32;96439.00;;;23.76;38.56
4598;BME280;62772;48.646;8.906;2023-07-13T13:11:33;96450.28;;;23.96;39.45
4598;BME280;62772;48.646;8.906;2023-07-13T13:16:39;96446.34;;;24.15;41.21
4598;BME280;62772;48.646;8.906;2023-07-13T13:21:44;96435.81;;;24.14;41.00
4598;BME280;62772;48.646;8.906;2023-07-13T13:26:45;96444.50;;;23.83;42.63
4598;BME280;62772;48.646;8.906;2023-07-13T13:31:46;96444.13;;;23.60;40.19
4598;BME280;62772;48.646;8.906;2023-07-13T13:36:47;96446.06;;;23.59;39.87
4598;BME280;62772;48.646;8.906;2023-07-13T13:41:49;96431.16;;;24.03;40.02
4598;BME280;62772;48.646;8.906;2023-07-13T13:46:52;96430.09;;;23.65;41.75
4598;BME280;62772;48.646;8.906;2023-07-13T13:51:54;96439.44;;;23.60;42.96
4598;BME280;62772;48.646;8.906;2023-07-13T13:56:55;96432.44;;;23.59;42.31
4598;BME280;62772;48.646;8.906;2023-07-13T14:01:56;96423.81;;;23.82;41.65
4598;BME280;62772;48.646;8.906;2023-07-13T14:07:00;96432.59;;;24.33;40.05
4598;BME280;62772;48.646;8.906;2023-07-13T14:12:00;96428.22;;;24.57;38.85
4598;BME280;62772;48.646;8.906;2023-07-13T14:17:01;96430.72;;;24.23;41.81
4598;BME280;62772;48.646;8.906;2023-07-13T14:22:01;96428.34;;;24.25;42.27
4598;BME280;62772;48.646;8.906;2023-07-13T14:27:02;96443.22;;;24.17;43.98
4598;BME280;62772;48.646;8.906;2023-07-13T14:32:03;96433.75;;;24.32;43.49
4598;BME280;62772;48.646;8.906;2023-07-13T14:37:05;96442.19;;;23.42;45.83
4598;BME280;62772;48.646;8.906;2023-07-13T14:42:12;96437.13;;;23.33;46.43
4598;BME280;62772;48.646;8.906;2023-07-13T14:47:12;96455.41;;;23.04;46.84
4598;BME280;62772;48.646;8.906;2023-07-13T14:52:20;96456.56;;;23.57;46.69
4598;BME280;62772;48.646;8.906;2023-07-13T14:57:23;96455.34;;;23.98;46.70
4598;BME280;62772;48.646;8.906;2023-07-13T15:02:32;96446.41;;;23.90;47.06
4598;BME280;62772;48.646;8.906;2023-07-13T15:07:33;96447.56;;;23.89;46.04
4598;BME280;62772;48.646;8.906;2023-07-13T15:12:33;96456.59;;;23.43;45.57
4598;BME280;62772;48.646;8.906;2023-07-13T15:17:45;96455.41;;;23.69;45.43
4598;BME280;62772;48.646;8.906;2023-07-13T15:22:46;96450.72;;;23.59;44.33
4598;BME280;62772;48.646;8.906;2023-07-13T15:27:48;96450.38;;;23.53;45.32
4598;BME280;62772;48.646;8.906;2023-07-13T15:32:49;96454.63;;;23.86;44.46
4598;BME280;62772;48.646;8.906;2023-07-13T15:37:51;96460.41;;;22.84;45.68
4598;BME280;62772;48.646;8.906;2023-07-13T15:42:52;96463.94;;;22.88;46.81
4598;BME280;62772;48.646;8.906;2023-07-13T15:47:52;96457.38;;;23.25;46.91
4598;BME280;62772;48.646;8.906;2023-07-13T15:52:54;96462.03;;;23.07;45.01
4598;BME280;62772;48.646;8.906;2023-07-13T15:57:55;96455.06;;;23.31;44.29
4598;BME280;62772;48.646;8.906;2023-07-13T16:02:56;96448.44;;;23.39;44.75
4598;BME280;62772;48.646;8.906;2023-07-13T16:07:56;96452.69;;;23.47;45.29
4598;BME280;62772;48.646;8.906;2023-07-13T16:12:58;96445.63;;;23.71;45.31
4598;BME280;62772;48.646;8.906;2023-07-13T16:17:58;96453.09;;;23.42;45.71
4598;BME280;62772;48.646;8.906;2023-07-13T16:22:59;96448.75;;;23.92;44.62
4598;BME280;62772;48.646;8.906;2023-07-13T16:28:03;96455.38;;;23.87;42.62
4598;BME280;62772;48.646;8.906;2023-07-13T16:33:05;96461.56;;;24.05;43.40
4598;BME280;62772;48.646;8.906;2023-07-13T16:50:15;96467.88;;;23.59;43.39
4598;BME280;62772;48.646;8.906;2023-07-13T16:55:18;96477.22;;;23.22;45.11
4598;BME280;62772;48.646;8.906;2023-07-13T17:00:30;96479.16;;;23.25;45.09
4598;BME280;62772;48.646;8.906;2023-07-13T17:05:34;96474.09;;;23.24;45.23
4598;BME280;62772;48.646;8.906;2023-07-13T17:10:36;96478.41;;;23.14;45.26
4598;BME280;62772;48.646;8.906;2023-07-13T17:15:36;96468.66;;;23.20;45.36
4598;BME280;62772;48.646;8.906;2023-07-13T17:20:43;96475.69;;;23.25;45.80
4598;BME280;62772;48.646;8.906;2023-07-13T17:25:46;96469.41;;;23.85;45.20
4598;BME280;62772;48.646;8.906;2023-07-13T17:30:49;96474.50;;;23.33;45.83
4598;BME280;62772;48.646;8.906;2023-07-13T17:35:50;96474.88;;;23.57;46.10
4598;BME280;62772;48.646;8.906;2023-07-13T17:46:54;96471.34;;;22.98;46.40
4598;BME280;62772;48.646;8.906;2023-07-13T17:51:55;96487.44;;;22.26;48.60
4598;BME280;62772;48.646;8.906;2023-07-13T17:56:56;96487.69;;;21.96;49.19
4598;BME280;62772;48.646;8.906;2023-07-13T18:01:56;96484.28;;;22.10;49.11
4598;BME280;62772;48.646;8.906;2023-07-13T18:06:57;96489.88;;;21.76;50.80
4598;BME280;62772;48.646;8.906;2023-07-13T18:12:09;96489.09;;;21.68;50.83
4598;BME280;62772;48.646;8.906;2023-07-13T18:17:12;96490.53;;;21.55;51.74
4598;BME280;62772;48.646;8.906;2023-07-13T18:22:15;96494.94;;;21.74;52.78
4598;BME280;62772;48.646;8.906;2023-07-13T18:27:16;96490.72;;;21.84;52.59
4598;BME280;62772;48.646;8.906;2023-07-13T18:32:19;96506.97;;;21.25;53.64
4598;BME280;62772;48.646;8.906;2023-07-13T18:37:21;96511.16;;;21.63;53.56
4598;BME280;62772;48.646;8.906;2023-07-13T18:42:23;96513.69;;;21.90;53.01
4598;BME280;62772;48.646;8.906;2023-07-13T18:47:24;96510.38;;;21.59;54.55
4598;BME280;62772;48.646;8.906;2023-07-13T18:52:29;96515.25;;;21.43;54.40
4598;BME280;62772;48.646;8.906;2023-07-13T18:57:30;96517.44;;;20.85;56.29
4598;BME280;62772;48.646;8.906;2023-07-13T19:02:31;96518.75;;;20.64;57.67
4598;BME280;62772;48.646;8.906;2023-07-13T19:07:31;96518.94;;;20.48;57.68
4598;BME280;62772;48.646;8.906;2023-07-13T19:12:33;96521.28;;;20.50;58.96
4598;BME280;62772;48.646;8.906;2023-07-13T19:17:33;96528.38;;;20.28;60.12
4598;BME280;62772;48.646;8.906;2023-07-13T19:22:34;96539.72;;;20.07;62.66
4598;BME280;62772;48.646;8.906;2023-07-13T19:27:34;96540.78;;;20.59;62.29
4598;BME280;62772;48.646;8.906;2023-07-13T19:32:35;96549.28;;;20.27;61.52
4598;BME280;62772;48.646;8.906;2023-07-13T19:37:36;96553.94;;;20.27;62.03
4598;BME280;62772;48.646;8.906;2023-07-13T19:42:36;96557.41;;;20.24;63.19
4598;BME280;62772;48.646;8.906;2023-07-13T19:47:37;96560.44;;;19.92;64.46
4598;BME280;62772;48.646;8.906;2023-07-13T20:04:44;96587.19;;;19.05;77.03
4598;BME280;62772;48.646;8.906;2023-07-13T20:09:46;96591.38;;;19.02;79.98
4598;BME280;62772;48.646;8.906;2023-07-13T20:14:49;96602.56;;;18.61;84.56
4598;BME280;62772;48.646;8.906;2023-07-13T20:37:50;96599.50;;;19.45;84.93
4598;BME280;62772;48.646;8.906;2023-07-13T20:42:51;96606.69;;;18.75;85.63
4598;BME280;62772;48.646;8.906;2023-07-13T20:47:52;96607.34;;;17.97;93.20
4598;BME280;62772;48.646;8.906;2023-07-13T20:52:56;96611.25;;;17.84;93.54
4598;BME280;62772;48.646;8.906;2023-07-13T21:04:08;96601.28;;;18.55;88.55
4598;BME280;62772;48.646;8.906;2023-07-13T21:09:19;96603.22;;;17.87;94.63
4598;BME280;62772;48.646;8.906;2023-07-13T21:14:19;96606.28;;;18.02;96.43
4598;BME280;62772;48.646;8.906;2023-07-13T21:19:24;96602.84;;;18.21;95.23
4598;BME280;62772;48.646;8.906;2023-07-13T21:24:24;96604.53;;;18.45;93.96
4598;BME280;62772;48.646;8.906;2023-07-13T21:29:25;96609.59;;;17.95;97.85
4598;BME280;62772;48.646;8.906;2023-07-13T21:34:25;96609.66;;;18.15;98.12
4598;BME280;62772;48.646;8.906;2023-07-13T21:39:26;96615.34;;;17.46;100.00
4598;BME280;62772;48.646;8.906;2023-07-13T21:44:30;96623.94;;;16.91;100.00
4598;BME280;62772;48.646;8.906;2023-07-13T21:49:31;96619.75;;;17.38;100.00
4598;BME280;62772;48.646;8.906;2023-07-13T21:54:31;96623.88;;;17.80;100.00
4598;BME280;62772;48.646;8.906;2023-07-13T21:59:32;96625.38;;;17.77;97.79
4598;BME280;62772;48.646;8.906;2023-07-13T22:04:32;96624.50;;;17.89;98.19
4598;BME280;62772;48.646;8.906;2023-07-13T22:09:33;96618.25;;;16.56;100.00
4598;BME280;62772;48.646;8.906;2023-07-13T22:14:33;96616.59;;;16.51;100.00
4598;BME280;62772;48.646;8.906;2023-07-13T22:19:34;96622.69;;;16.36;100.00
4598;BME280;62772;48.646;8.906;2023-07-13T22:24:34;96632.66;;;16.47;100.00
4598;BME280;62772;48.646;8.906;2023-07-13T22:29:35;96626.03;;;17.26;100.00
4598;BME280;62772;48.646;8.906;2023-07-13T22:34:35;96631.44;;;16.98;100.00
4598;BME280;62772;48.646;8.906;2023-07-13T22:39:36;96623.88;;;16.63;100.00
4598;BME280;62772;48.646;8.906;2023-07-13T22:44:37;96626.50;;;15.73;100.00
4598;BME280;62772;48.646;8.906;2023-07-13T22:49:37;96624.16;;;15.59;100.00
4598;BME280;62772;48.646;8.906;2023-07-13T22:54:38;96630.81;;;15.86;100.00
4598;BME280;62772;48.646;8.906;2023-07-13T22:59:40;96638.31;;;16.30;100.00
4598;BME280;62772;48.646;8.906;2023-07-13T23:04:40;96633.47;;;16.89;100.00
4598;BME280;62772;48.646;8.906;2023-07-13T23:15:53;96626.16;;;15.62;100.00
4598;BME280;62772;48.646;8.906;2023-07-13T23:20:55;96624.84;;;16.18;100.00
4598;BME280;62772;48.646;8.906;2023-07-13T23:25:56;96617.09;;;16.28;100.00
4598;BME280;62772;48.646;8.906;2023-07-13T23:30:56;96623.63;;;16.15;100.00
4598;BME280;62772;48.646;8.906;2023-07-13T23:35:58;96620.94;;;14.57;100.00
4598;BME280;62772;48.646;8.906;2023-07-13T23:41:00;96615.03;;;14.72;100.00
4598;BME280;62772;48.646;8.906;2023-07-13T23:46:01;96616.28;;;15.54;100.00
4598;BME280;62772;48.646;8.906;2023-07-13T23:51:01;96607.66;;;16.22;100.00
4598;BME280;62772;48.646;8.906;2023-07-13T23:56:10;96603.44;;;15.26;100.00
